sensor_id;sensor_type;location;lat;lon;timestamp;temperature;humidity
53152;DHT22;39234;53.158;6.322;2023-05-10T00:02:10;12.10;99.90
53152;DHT22;39234;53.158;6.322;2023-05-10T00:04:35;12.10;99.90
53152;DHT22;39234;53.158;6.322;2023-05-10T00:07:01;12.10;99.90
53152;DHT22;39234;53.158;6.322;2023-05-10T00:09:27;12.00;99.90
53152;DHT22;39234;53.158;6.322;2023-05-10T00:11:53;12.20;99.90
53152;DHT22;39234;53.158;6.322;2023-05-10T00:14:18;12.00;99.90
53152;DHT22;39234;53.158;6.322;2023-05-10T00:16:44;12.30;99.90
53152;DHT22;39234;53.158;6.322;2023-05-10T00:19:10;12.20;99.90
53152;DHT22;39234;53.158;6.322;2023-05-10T00:21:36;12.10;99.90
53152;DHT22;39234;53.158;6.322;2023-05-10T00:24:02;12.10;99.90
53152;DHT22;39234;53.158;6.322;2023-05-10T00:26:28;11.90;99.90
53152;DHT22;39234;53.158;6.322;2023-05-10T00:28:53;12.00;99.90
53152;DHT22;39234;53.158;6.322;2023-05-10T00:31:19;12.10;99.90
53152;DHT22;39234;53.158;6.322;2023-05-10T00:33:45;12.20;99.90
53152;DHT22;39234;53.158;6.322;2023-05-10T00:36:10;12.00;99.90
53152;DHT22;39234;53.158;6.322;2023-05-10T00:38:36;12.10;99.90
53152;DHT22;39234;53.158;6.322;2023-05-10T00:41:02;11.90;99.90
53152;DHT22;39234;53.158;6.322;2023-05-10T00:43:28;12.00;99.90
53152;DHT22;39234;53.158;6.322;2023-05-10T00:45:54;12.00;99.90
53152;DHT22;39234;53.158;6.322;2023-05-10T00:48:20;12.10;99.90
53152;DHT22;39234;53.158;6.322;2023-05-10T00:50:46;12.00;99.90
53152;DHT22;39234;53.158;6.322;2023-05-10T00:53:12;12.00;99.90
53152;DHT22;39234;53.158;6.322;2023-05-10T00:55:38;12.00;99.90
53152;DHT22;39234;53.158;6.322;2023-05-10T00:58:04;12.10;99.90
53152;DHT22;39234;53.158;6.322;2023-05-10T01:00:32;11.90;99.90
53152;DHT22;39234;53.158;6.322;2023-05-10T01:02:58;12.00;99.90
53152;DHT22;39234;53.158;6.322;2023-05-10T01:05:25;11.80;99.90
53152;DHT22;39234;53.158;6.322;2023-05-10T01:07:52;12.30;99.90
53152;DHT22;39234;53.158;6.322;2023-05-10T01:10:18;12.00;99.90
53152;DHT22;39234;53.158;6.322;2023-05-10T01:12:46;12.00;99.90
53152;DHT22;39234;53.158;6.322;2023-05-10T01:15:12;11.90;99.90
53152;DHT22;39234;53.158;6.322;2023-05-10T01:17:40;12.00;99.90
53152;DHT22;39234;53.158;6.322;2023-05-10T01:20:09;11.70;99.90
53152;DHT22;39234;53.158;6.322;2023-05-10T01:25:37;11.80;99.90
53152;DHT22;39234;53.158;6.322;2023-05-10T01:36:24;11.80;99.90
53152;DHT22;39234;53.158;6.322;2023-05-10T01:39:02;11.80;99.90
53152;DHT22;39234;53.158;6.322;2023-05-10T01:41:49;11.70;99.90
53152;DHT22;39234;53.158;6.322;2023-05-10T01:46:43;11.90;99.90
53152;DHT22;39234;53.158;6.322;2023-05-10T01:49:13;11.90;99.90
53152;DHT22;39234;53.158;6.322;2023-05-10T01:51:50;11.70;99.90
53152;DHT22;39234;53.158;6.322;2023-05-10T01:54:19;11.80;99.90
53152;DHT22;39234;53.158;6.322;2023-05-10T01:56:50;12.00;99.90
53152;DHT22;39234;53.158;6.322;2023-05-10T01:59:19;11.80;99.90
53152;DHT22;39234;53.158;6.322;2023-05-10T02:01:47;11.80;99.90
53152;DHT22;39234;53.158;6.322;2023-05-10T02:04:16;11.90;99.90
53152;DHT22;39234;53.158;6.322;2023-05-10T02:06:43;11.80;99.90
53152;DHT22;39234;53.158;6.322;2023-05-10T02:09:10;11.90;99.90
53152;DHT22;39234;53.158;6.322;2023-05-10T02:11:42;11.70;99.90
53152;DHT22;39234;53.158;6.322;2023-05-10T02:14:09;12.00;99.90
53152;DHT22;39234;53.158;6.322;2023-05-10T02:16:38;11.80;99.90
53152;DHT22;39234;53.158;6.322;2023-05-10T02:19:05;11.70;99.90
53152;DHT22;39234;53.158;6.322;2023-05-10T02:21:33;11.90;99.90
53152;DHT22;39234;53.158;6.322;2023-05-10T02:24:00;11.90;99.90
53152;DHT22;39234;53.158;6.322;2023-05-10T02:26:26;11.90;99.90
53152;DHT22;39234;53.158;6.322;2023-05-10T02:28:53;11.80;99.90
53152;DHT22;39234;53.158;6.322;2023-05-10T02:31:20;11.90;99.90
53152;DHT22;39234;53.158;6.322;2023-05-10T02:33:48;12.00;99.90
53152;DHT22;39234;53.158;6.322;2023-05-10T02:36:15;11.80;99.90
53152;DHT22;39234;53.158;6.322;2023-05-10T02:38:42;11.90;99.90
53152;DHT22;39234;53.158;6.322;2023-05-10T02:41:09;11.90;99.90
53152;DHT22;39234;53.158;6.322;2023-05-10T02:43:38;12.00;99.90
53152;DHT22;39234;53.158;6.322;2023-05-10T02:46:05;11.90;99.90
53152;DHT22;39234;53.158;6.322;2023-05-10T02:48:31;12.00;99.90
53152;DHT22;39234;53.158;6.322;2023-05-10T02:51:02;11.70;99.90
53152;DHT22;39234;53.158;6.322;2023-05-10T02:53:35;11.70;99.90
53152;DHT22;39234;53.158;6.322;2023-05-10T02:56:05;11.90;99.90
53152;DHT22;39234;53.158;6.322;2023-05-10T02:58:32;11.80;99.90
53152;DHT22;39234;53.158;6.322;2023-05-10T03:01:00;12.10;99.90
53152;DHT22;39234;53.158;6.322;2023-05-10T03:03:26;12.10;99.90
53152;DHT22;39234;53.158;6.322;2023-05-10T03:05:51;11.80;99.90
53152;DHT22;39234;53.158;6.322;2023-05-10T03:08:21;11.80;99.90
53152;DHT22;39234;53.158;6.322;2023-05-10T03:16:38;11.90;99.90
53152;DHT22;39234;53.158;6.322;2023-05-10T03:19:40;11.90;99.90
53152;DHT22;39234;53.158;6.322;2023-05-10T03:22:10;11.80;99.90
53152;DHT22;39234;53.158;6.322;2023-05-10T03:24:36;11.70;99.90
53152;DHT22;39234;53.158;6.322;2023-05-10T03:27:05;11.80;99.90
53152;DHT22;39234;53.158;6.322;2023-05-10T03:29:33;11.80;99.90
53152;DHT22;39234;53.158;6.322;2023-05-10T03:31:59;11.80;99.90
53152;DHT22;39234;53.158;6.322;2023-05-10T03:34:25;11.90;99.90
53152;DHT22;39234;53.158;6.322;2023-05-10T03:36:51;11.80;99.90
53152;DHT22;39234;53.158;6.322;2023-05-10T03:39:17;11.50;99.90
53152;DHT22;39234;53.158;6.322;2023-05-10T03:41:43;11.80;99.90
53152;DHT22;39234;53.158;6.322;2023-05-10T03:44:09;11.90;99.90
53152;DHT22;39234;53.158;6.322;2023-05-10T03:46:34;11.70;99.90
53152;DHT22;39234;53.158;6.322;2023-05-10T03:49:00;11.80;99.90
53152;DHT22;39234;53.158;6.322;2023-05-10T03:51:26;11.90;99.90
53152;DHT22;39234;53.158;6.322;2023-05-10T03:53:54;11.80;99.90
53152;DHT22;39234;53.158;6.322;2023-05-10T03:56:21;11.90;99.90
53152;DHT22;39234;53.158;6.322;2023-05-10T03:58:47;11.80;99.90
53152;DHT22;39234;53.158;6.322;2023-05-10T04:01:12;11.70;99.90
53152;DHT22;39234;53.158;6.322;2023-05-10T04:03:38;11.70;99.90
53152;DHT22;39234;53.158;6.322;2023-05-10T04:06:04;11.70;99.90
53152;DHT22;39234;53.158;6.322;2023-05-10T04:08:31;11.80;99.90
53152;DHT22;39234;53.158;6.322;2023-05-10T04:11:11;11.60;99.90
53152;DHT22;39234;53.158;6.322;2023-05-10T04:13:38;11.80;99.90
53152;DHT22;39234;53.158;6.322;2023-05-10T04:16:04;11.50;99.90
53152;DHT22;39234;53.158;6.322;2023-05-10T04:18:30;11.50;99.90
53152;DHT22;39234;53.158;6.322;2023-05-10T04:20:56;12.40;99.90
53152;DHT22;39234;53.158;6.322;2023-05-10T04:23:22;11.60;99.90
53152;DHT22;39234;53.158;6.322;2023-05-10T04:25:48;11.60;99.90
53152;DHT22;39234;53.158;6.322;2023-05-10T04:28:14;11.50;99.90
53152;DHT22;39234;53.158;6.322;2023-05-10T04:30:40;11.70;99.90
53152;DHT22;39234;53.158;6.322;2023-05-10T04:33:06;11.60;99.90
53152;DHT22;39234;53.158;6.322;2023-05-10T04:35:31;11.70;99.90
53152;DHT22;39234;53.158;6.322;2023-05-10T04:37:57;11.80;99.90
53152;DHT22;39234;53.158;6.322;2023-05-10T04:40:23;11.70;99.90
53152;DHT22;39234;53.158;6.322;2023-05-10T04:42:49;11.60;99.90
53152;DHT22;39234;53.158;6.322;2023-05-10T04:45:14;11.60;99.90
53152;DHT22;39234;53.158;6.322;2023-05-10T04:47:40;10.50;99.90
53152;DHT22;39234;53.158;6.322;2023-05-10T04:50:07;11.60;99.90
53152;DHT22;39234;53.158;6.322;2023-05-10T04:52:33;11.50;99.90
53152;DHT22;39234;53.158;6.322;2023-05-10T04:54:59;11.60;99.90
53152;DHT22;39234;53.158;6.322;2023-05-10T04:57:25;11.80;99.90
53152;DHT22;39234;53.158;6.322;2023-05-10T04:59:50;11.70;99.90
53152;DHT22;39234;53.158;6.322;2023-05-10T05:02:16;11.70;99.90
53152;DHT22;39234;53.158;6.322;2023-05-10T05:04:42;11.50;99.90
53152;DHT22;39234;53.158;6.322;2023-05-10T05:07:08;11.70;99.90
53152;DHT22;39234;53.158;6.322;2023-05-10T05:09:33;11.70;99.90
53152;DHT22;39234;53.158;6.322;2023-05-10T05:11:59;11.50;99.90
53152;DHT22;39234;53.158;6.322;2023-05-10T05:14:25;12.40;99.90
53152;DHT22;39234;53.158;6.322;2023-05-10T05:16:52;11.50;99.90
53152;DHT22;39234;53.158;6.322;2023-05-10T05:19:17;11.50;99.90
53152;DHT22;39234;53.158;6.322;2023-05-10T05:21:43;11.70;99.90
53152;DHT22;39234;53.158;6.322;2023-05-10T05:24:09;11.80;99.90
53152;DHT22;39234;53.158;6.322;2023-05-10T05:26:35;11.80;99.90
53152;DHT22;39234;53.158;6.322;2023-05-10T05:29:02;11.80;99.90
53152;DHT22;39234;53.158;6.322;2023-05-10T05:31:28;11.80;99.90
53152;DHT22;39234;53.158;6.322;2023-05-10T05:33:54;11.70;99.90
53152;DHT22;39234;53.158;6.322;2023-05-10T05:36:20;11.60;99.90
53152;DHT22;39234;53.158;6.322;2023-05-10T05:38:46;11.70;99.90
53152;DHT22;39234;53.158;6.322;2023-05-10T05:41:12;11.80;99.90
53152;DHT22;39234;53.158;6.322;2023-05-10T05:43:38;11.70;99.90
53152;DHT22;39234;53.158;6.322;2023-05-10T05:46:03;11.80;99.90
53152;DHT22;39234;53.158;6.322;2023-05-10T05:48:30;10.70;99.90
53152;DHT22;39234;53.158;6.322;2023-05-10T05:50:56;11.70;99.90
53152;DHT22;39234;53.158;6.322;2023-05-10T05:53:22;11.60;99.90
53152;DHT22;39234;53.158;6.322;2023-05-10T05:55:56;11.90;99.90
53152;DHT22;39234;53.158;6.322;2023-05-10T05:58:22;11.70;99.90
53152;DHT22;39234;53.158;6.322;2023-05-10T06:00:48;11.80;99.90
53152;DHT22;39234;53.158;6.322;2023-05-10T06:03:14;11.80;99.90
53152;DHT22;39234;53.158;6.322;2023-05-10T06:05:40;11.70;99.90
53152;DHT22;39234;53.158;6.322;2023-05-10T06:08:05;11.60;99.90
53152;DHT22;39234;53.158;6.322;2023-05-10T06:10:31;11.60;99.90
53152;DHT22;39234;53.158;6.322;2023-05-10T06:12:57;11.50;99.90
53152;DHT22;39234;53.158;6.322;2023-05-10T06:15:22;11.60;99.90
53152;DHT22;39234;53.158;6.322;2023-05-10T06:17:48;11.50;99.90
53152;DHT22;39234;53.158;6.322;2023-05-10T06:20:17;11.70;99.90
53152;DHT22;39234;53.158;6.322;2023-05-10T06:22:42;11.60;99.90
53152;DHT22;39234;53.158;6.322;2023-05-10T06:25:09;11.80;99.90
53152;DHT22;39234;53.158;6.322;2023-05-10T06:27:35;11.70;99.90
53152;DHT22;39234;53.158;6.322;2023-05-10T06:30:01;11.70;99.90
53152;DHT22;39234;53.158;6.322;2023-05-10T06:32:28;11.80;99.90
53152;DHT22;39234;53.158;6.322;2023-05-10T06:34:53;11.70;99.90
53152;DHT22;39234;53.158;6.322;2023-05-10T06:37:19;11.70;99.90
53152;DHT22;39234;53.158;6.322;2023-05-10T06:39:45;11.70;99.90
53152;DHT22;39234;53.158;6.322;2023-05-10T06:42:11;11.90;99.90
53152;DHT22;39234;53.158;6.322;2023-05-10T06:44:37;11.90;99.90
53152;DHT22;39234;53.158;6.322;2023-05-10T06:47:02;11.80;99.90
53152;DHT22;39234;53.158;6.322;2023-05-10T06:49:28;11.80;99.90
53152;DHT22;39234;53.158;6.322;2023-05-10T06:51:55;11.90;99.90
53152;DHT22;39234;53.158;6.322;2023-05-10T06:54:21;11.90;99.90
53152;DHT22;39234;53.158;6.322;2023-05-10T06:56:47;11.90;99.90
53152;DHT22;39234;53.158;6.322;2023-05-10T06:59:13;12.10;99.90
53152;DHT22;39234;53.158;6.322;2023-05-10T07:01:39;11.90;99.90
53152;DHT22;39234;53.158;6.322;2023-05-10T07:04:05;11.90;99.90
53152;DHT22;39234;53.158;6.322;2023-05-10T07:06:30;11.90;99.90
53152;DHT22;39234;53.158;6.322;2023-05-10T07:08:56;11.90;99.90
53152;DHT22;39234;53.158;6.322;2023-05-10T07:11:22;12.20;99.90
53152;DHT22;39234;53.158;6.322;2023-05-10T07:13:48;12.00;99.90
53152;DHT22;39234;53.158;6.322;2023-05-10T07:16:13;12.10;99.90
53152;DHT22;39234;53.158;6.322;2023-05-10T07:18:39;12.00;99.90
53152;DHT22;39234;53.158;6.322;2023-05-10T07:21:05;12.20;99.90
53152;DHT22;39234;53.158;6.322;2023-05-10T07:23:31;12.10;99.90
53152;DHT22;39234;53.158;6.322;2023-05-10T07:25:57;12.30;99.90
53152;DHT22;39234;53.158;6.322;2023-05-10T07:28:22;12.00;99.90
53152;DHT22;39234;53.158;6.322;2023-05-10T07:30:49;12.20;99.90
53152;DHT22;39234;53.158;6.322;2023-05-10T07:33:16;12.20;99.90
53152;DHT22;39234;53.158;6.322;2023-05-10T07:35:42;12.20;99.90
53152;DHT22;39234;53.158;6.322;2023-05-10T07:38:08;12.10;99.90
53152;DHT22;39234;53.158;6.322;2023-05-10T07:40:33;12.10;99.90
53152;DHT22;39234;53.158;6.322;2023-05-10T07:42:59;12.30;99.90
53152;DHT22;39234;53.158;6.322;2023-05-10T07:45:27;12.30;99.90
53152;DHT22;39234;53.158;6.322;2023-05-10T07:47:53;12.20;99.90
53152;DHT22;39234;53.158;6.322;2023-05-10T07:50:19;12.30;99.90
53152;DHT22;39234;53.158;6.322;2023-05-10T07:52:44;12.20;99.90
53152;DHT22;39234;53.158;6.322;2023-05-10T07:55:10;12.40;99.90
53152;DHT22;39234;53.158;6.322;2023-05-10T07:57:36;12.30;99.90
53152;DHT22;39234;53.158;6.322;2023-05-10T08:00:02;12.40;99.90
53152;DHT22;39234;53.158;6.322;2023-05-10T08:02:28;12.40;99.90
53152;DHT22;39234;53.158;6.322;2023-05-10T08:04:54;12.30;99.90
53152;DHT22;39234;53.158;6.322;2023-05-10T08:07:21;12.50;99.90
53152;DHT22;39234;53.158;6.322;2023-05-10T08:09:47;12.30;99.90
53152;DHT22;39234;53.158;6.322;2023-05-10T08:12:12;12.60;99.90
53152;DHT22;39234;53.158;6.322;2023-05-10T08:14:38;12.50;99.90
53152;DHT22;39234;53.158;6.322;2023-05-10T08:17:04;12.60;99.90
53152;DHT22;39234;53.158;6.322;2023-05-10T08:19:30;12.70;99.90
53152;DHT22;39234;53.158;6.322;2023-05-10T08:21:55;12.70;99.90
53152;DHT22;39234;53.158;6.322;2023-05-10T08:24:22;12.60;99.90
53152;DHT22;39234;53.158;6.322;2023-05-10T08:26:48;12.70;99.90
53152;DHT22;39234;53.158;6.322;2023-05-10T08:29:15;12.60;99.90
53152;DHT22;39234;53.158;6.322;2023-05-10T08:31:41;12.70;99.90
53152;DHT22;39234;53.158;6.322;2023-05-10T08:34:07;14.10;99.90
53152;DHT22;39234;53.158;6.322;2023-05-10T08:36:33;12.60;99.90
53152;DHT22;39234;53.158;6.322;2023-05-10T08:38:58;12.60;99.90
53152;DHT22;39234;53.158;6.322;2023-05-10T08:41:24;12.80;99.90
53152;DHT22;39234;53.158;6.322;2023-05-10T08:43:53;12.80;99.90
53152;DHT22;39234;53.158;6.322;2023-05-10T08:46:21;13.00;99.90
53152;DHT22;39234;53.158;6.322;2023-05-10T08:48:49;13.10;99.90
53152;DHT22;39234;53.158;6.322;2023-05-10T08:51:20;12.90;99.90
53152;DHT22;39234;53.158;6.322;2023-05-10T08:53:47;13.10;99.90
53152;DHT22;39234;53.158;6.322;2023-05-10T08:56:13;13.20;99.90
53152;DHT22;39234;53.158;6.322;2023-05-10T08:58:41;13.20;99.90
53152;DHT22;39234;53.158;6.322;2023-05-10T09:01:07;13.20;99.90
53152;DHT22;39234;53.158;6.322;2023-05-10T09:03:34;13.20;99.90
53152;DHT22;39234;53.158;6.322;2023-05-10T09:06:00;13.00;99.90
53152;DHT22;39234;53.158;6.322;2023-05-10T09:08:26;13.10;99.90
53152;DHT22;39234;53.158;6.322;2023-05-10T09:10:56;12.90;99.90
53152;DHT22;39234;53.158;6.322;2023-05-10T09:13:23;13.10;99.90
53152;DHT22;39234;53.158;6.322;2023-05-10T09:15:49;13.40;99.90
53152;DHT22;39234;53.158;6.322;2023-05-10T09:18:16;13.30;99.90
53152;DHT22;39234;53.158;6.322;2023-05-10T09:20:42;13.60;99.90
53152;DHT22;39234;53.158;6.322;2023-05-10T09:23:08;13.50;99.90
53152;DHT22;39234;53.158;6.322;2023-05-10T09:25:33;13.50;99.90
53152;DHT22;39234;53.158;6.322;2023-05-10T09:27:59;13.60;99.90
53152;DHT22;39234;53.158;6.322;2023-05-10T09:30:30;13.50;99.90
53152;DHT22;39234;53.158;6.322;2023-05-10T09:32:57;13.60;99.90
53152;DHT22;39234;53.158;6.322;2023-05-10T09:35:25;13.50;99.90
53152;DHT22;39234;53.158;6.322;2023-05-10T09:37:52;13.80;99.90
53152;DHT22;39234;53.158;6.322;2023-05-10T09:40:21;13.90;99.90
53152;DHT22;39234;53.158;6.322;2023-05-10T09:42:56;14.00;99.90
53152;DHT22;39234;53.158;6.322;2023-05-10T09:45:23;13.90;99.90
53152;DHT22;39234;53.158;6.322;2023-05-10T09:47:49;13.80;99.90
53152;DHT22;39234;53.158;6.322;2023-05-10T09:50:15;13.90;99.90
53152;DHT22;39234;53.158;6.322;2023-05-10T09:53:00;14.20;99.90
53152;DHT22;39234;53.158;6.322;2023-05-10T09:55:47;14.10;99.90
53152;DHT22;39234;53.158;6.322;2023-05-10T09:58:14;14.10;99.90
53152;DHT22;39234;53.158;6.322;2023-05-10T10:00:43;14.10;99.90
53152;DHT22;39234;53.158;6.322;2023-05-10T10:03:13;14.10;99.90
53152;DHT22;39234;53.158;6.322;2023-05-10T10:05:41;14.00;99.90
53152;DHT22;39234;53.158;6.322;2023-05-10T10:08:08;13.90;99.90
53152;DHT22;39234;53.158;6.322;2023-05-10T10:10:34;14.10;99.90
53152;DHT22;39234;53.158;6.322;2023-05-10T10:13:01;12.40;99.90
53152;DHT22;39234;53.158;6.322;2023-05-10T10:15:27;14.20;99.90
53152;DHT22;39234;53.158;6.322;2023-05-10T10:17:53;14.20;99.90
53152;DHT22;39234;53.158;6.322;2023-05-10T10:20:21;14.10;99.90
53152;DHT22;39234;53.158;6.322;2023-05-10T10:22:48;14.30;99.90
53152;DHT22;39234;53.158;6.322;2023-05-10T10:25:16;14.50;99.90
53152;DHT22;39234;53.158;6.322;2023-05-10T10:36:00;14.70;99.90
53152;DHT22;39234;53.158;6.322;2023-05-10T10:38:36;14.60;99.90
53152;DHT22;39234;53.158;6.322;2023-05-10T10:41:11;14.40;99.90
53152;DHT22;39234;53.158;6.322;2023-05-10T10:43:37;14.40;99.90
53152;DHT22;39234;53.158;6.322;2023-05-10T10:46:16;14.30;99.90
53152;DHT22;39234;53.158;6.322;2023-05-10T10:48:49;14.10;99.90
53152;DHT22;39234;53.158;6.322;2023-05-10T10:51:17;14.10;99.90
53152;DHT22;39234;53.158;6.322;2023-05-10T10:53:43;14.10;99.90
53152;DHT22;39234;53.158;6.322;2023-05-10T10:56:10;14.20;99.90
53152;DHT22;39234;53.158;6.322;2023-05-10T10:58:38;14.30;99.90
53152;DHT22;39234;53.158;6.322;2023-05-10T11:01:18;14.30;99.90
53152;DHT22;39234;53.158;6.322;2023-05-10T11:06:31;14.00;99.90
53152;DHT22;39234;53.158;6.322;2023-05-10T11:08:58;14.00;99.90
53152;DHT22;39234;53.158;6.322;2023-05-10T11:11:23;14.20;99.90
53152;DHT22;39234;53.158;6.322;2023-05-10T11:13:49;13.80;99.90
53152;DHT22;39234;53.158;6.322;2023-05-10T11:16:19;14.00;99.90
53152;DHT22;39234;53.158;6.322;2023-05-10T11:18:58;14.00;99.90
53152;DHT22;39234;53.158;6.322;2023-05-10T11:21:24;16.10;99.90
53152;DHT22;39234;53.158;6.322;2023-05-10T11:23:55;14.10;99.90
53152;DHT22;39234;53.158;6.322;2023-05-10T11:26:25;13.90;99.90
53152;DHT22;39234;53.158;6.322;2023-05-10T11:28:53;16.00;99.90
53152;DHT22;39234;53.158;6.322;2023-05-10T11:31:22;13.80;99.90
53152;DHT22;39234;53.158;6.322;2023-05-10T11:33:53;13.90;99.90
53152;DHT22;39234;53.158;6.322;2023-05-10T11:36:23;13.90;99.90
53152;DHT22;39234;53.158;6.322;2023-05-10T11:38:49;14.20;99.90
53152;DHT22;39234;53.158;6.322;2023-05-10T11:41:17;14.10;99.90
53152;DHT22;39234;53.158;6.322;2023-05-10T11:43:46;14.20;99.90
53152;DHT22;39234;53.158;6.322;2023-05-10T11:46:13;14.20;99.90
53152;DHT22;39234;53.158;6.322;2023-05-10T11:48:40;14.50;99.90
53152;DHT22;39234;53.158;6.322;2023-05-10T11:51:09;14.50;99.90
53152;DHT22;39234;53.158;6.322;2023-05-10T11:53:36;14.50;99.90
53152;DHT22;39234;53.158;6.322;2023-05-10T11:56:09;14.40;99.90
53152;DHT22;39234;53.158;6.322;2023-05-10T11:58:36;14.50;99.90
53152;DHT22;39234;53.158;6.322;2023-05-10T12:01:03;14.50;99.90
53152;DHT22;39234;53.158;6.322;2023-05-10T12:03:29;14.50;99.90
53152;DHT22;39234;53.158;6.322;2023-05-10T12:05:56;14.40;99.90
53152;DHT22;39234;53.158;6.322;2023-05-10T12:08:28;14.30;99.90
53152;DHT22;39234;53.158;6.322;2023-05-10T12:11:07;14.50;99.90
53152;DHT22;39234;53.158;6.322;2023-05-10T12:13:38;14.30;99.90
53152;DHT22;39234;53.158;6.322;2023-05-10T12:16:12;14.50;99.90
53152;DHT22;39234;53.158;6.322;2023-05-10T12:18:38;14.40;99.90
53152;DHT22;39234;53.158;6.322;2023-05-10T12:21:05;14.60;99.90
53152;DHT22;39234;53.158;6.322;2023-05-10T12:23:31;14.50;99.90
53152;DHT22;39234;53.158;6.322;2023-05-10T12:26:02;14.50;99.90
53152;DHT22;39234;53.158;6.322;2023-05-10T12:28:30;14.60;99.90
53152;DHT22;39234;53.158;6.322;2023-05-10T12:30:57;14.50;99.90
53152;DHT22;39234;53.158;6.322;2023-05-10T12:33:23;14.50;99.90
53152;DHT22;39234;53.158;6.322;2023-05-10T12:35:51;14.50;99.90
53152;DHT22;39234;53.158;6.322;2023-05-10T12:38:33;14.50;99.90
53152;DHT22;39234;53.158;6.322;2023-05-10T12:41:02;14.50;99.90
53152;DHT22;39234;53.158;6.322;2023-05-10T12:43:28;14.60;99.90
53152;DHT22;39234;53.158;6.322;2023-05-10T12:45:54;14.50;99.90
53152;DHT22;39234;53.158;6.322;2023-05-10T12:48:20;14.60;99.90
53152;DHT22;39234;53.158;6.322;2023-05-10T12:50:46;14.80;99.90
53152;DHT22;39234;53.158;6.322;2023-05-10T12:53:16;14.50;99.90
53152;DHT22;39234;53.158;6.322;2023-05-10T12:55:44;14.60;99.90
53152;DHT22;39234;53.158;6.322;2023-05-10T12:58:10;14.90;99.90
53152;DHT22;39234;53.158;6.322;2023-05-10T13:00:36;14.80;99.90
53152;DHT22;39234;53.158;6.322;2023-05-10T13:03:04;14.70;99.90
53152;DHT22;39234;53.158;6.322;2023-05-10T13:05:32;14.80;99.90
53152;DHT22;39234;53.158;6.322;2023-05-10T13:07:58;14.70;99.90
53152;DHT22;39234;53.158;6.322;2023-05-10T13:10:24;14.90;99.90
53152;DHT22;39234;53.158;6.322;2023-05-10T13:12:50;15.00;99.90
53152;DHT22;39234;53.158;6.322;2023-05-10T13:15:16;16.20;99.90
53152;DHT22;39234;53.158;6.322;2023-05-10T13:17:42;15.20;99.90
53152;DHT22;39234;53.158;6.322;2023-05-10T13:20:09;15.20;99.90
53152;DHT22;39234;53.158;6.322;2023-05-10T13:22:35;15.50;99.90
53152;DHT22;39234;53.158;6.322;2023-05-10T13:25:01;15.50;99.90
53152;DHT22;39234;53.158;6.322;2023-05-10T13:27:27;15.70;99.90
53152;DHT22;39234;53.158;6.322;2023-05-10T13:29:53;15.80;99.90
53152;DHT22;39234;53.158;6.322;2023-05-10T13:32:20;16.00;99.90
53152;DHT22;39234;53.158;6.322;2023-05-10T13:34:46;16.10;99.90
53152;DHT22;39234;53.158;6.322;2023-05-10T13:37:12;16.10;99.90
53152;DHT22;39234;53.158;6.322;2023-05-10T13:39:37;15.80;99.90
53152;DHT22;39234;53.158;6.322;2023-05-10T13:42:04;15.90;99.90
53152;DHT22;39234;53.158;6.322;2023-05-10T13:44:30;15.90;99.90
53152;DHT22;39234;53.158;6.322;2023-05-10T13:46:56;15.80;99.90
53152;DHT22;39234;53.158;6.322;2023-05-10T13:49:22;15.70;99.90
53152;DHT22;39234;53.158;6.322;2023-05-10T13:51:48;15.60;99.90
53152;DHT22;39234;53.158;6.322;2023-05-10T13:54:13;15.90;99.90
53152;DHT22;39234;53.158;6.322;2023-05-10T13:56:39;15.70;99.90
53152;DHT22;39234;53.158;6.322;2023-05-10T13:59:06;15.70;99.90
53152;DHT22;39234;53.158;6.322;2023-05-10T14:01:33;17.90;99.90
53152;DHT22;39234;53.158;6.322;2023-05-10T14:03:59;15.80;99.90
53152;DHT22;39234;53.158;6.322;2023-05-10T14:06:25;15.80;99.90
53152;DHT22;39234;53.158;6.322;2023-05-10T14:08:52;15.80;99.90
53152;DHT22;39234;53.158;6.322;2023-05-10T14:11:19;15.80;99.90
53152;DHT22;39234;53.158;6.322;2023-05-10T14:13:45;15.90;99.90
53152;DHT22;39234;53.158;6.322;2023-05-10T14:16:10;15.80;99.90
53152;DHT22;39234;53.158;6.322;2023-05-10T14:18:37;15.90;99.90
53152;DHT22;39234;53.158;6.322;2023-05-10T14:21:03;16.00;99.90
53152;DHT22;39234;53.158;6.322;2023-05-10T14:23:29;16.00;99.90
53152;DHT22;39234;53.158;6.322;2023-05-10T14:25:55;16.00;99.90
53152;DHT22;39234;53.158;6.322;2023-05-10T14:28:21;16.00;99.90
53152;DHT22;39234;53.158;6.322;2023-05-10T14:30:49;16.10;99.90
53152;DHT22;39234;53.158;6.322;2023-05-10T14:33:16;16.00;99.90
53152;DHT22;39234;53.158;6.322;2023-05-10T14:35:42;15.90;99.90
53152;DHT22;39234;53.158;6.322;2023-05-10T14:38:08;15.80;99.90
53152;DHT22;39234;53.158;6.322;2023-05-10T14:40:34;15.70;99.90
53152;DHT22;39234;53.158;6.322;2023-05-10T14:43:00;15.70;99.90
53152;DHT22;39234;53.158;6.322;2023-05-10T14:45:26;15.70;99.90
53152;DHT22;39234;53.158;6.322;2023-05-10T14:47:51;15.70;99.90
53152;DHT22;39234;53.158;6.322;2023-05-10T14:50:17;15.60;99.90
53152;DHT22;39234;53.158;6.322;2023-05-10T14:52:44;15.60;99.90
53152;DHT22;39234;53.158;6.322;2023-05-10T14:55:09;15.50;99.90
53152;DHT22;39234;53.158;6.322;2023-05-10T14:57:35;15.30;99.90
53152;DHT22;39234;53.158;6.322;2023-05-10T15:00:02;15.40;99.90
53152;DHT22;39234;53.158;6.322;2023-05-10T15:02:30;15.20;99.90
53152;DHT22;39234;53.158;6.322;2023-05-10T15:04:55;15.10;99.90
53152;DHT22;39234;53.158;6.322;2023-05-10T15:07:23;15.00;99.90
53152;DHT22;39234;53.158;6.322;2023-05-10T15:09:49;15.00;99.90
53152;DHT22;39234;53.158;6.322;2023-05-10T15:12:15;14.90;99.90
53152;DHT22;39234;53.158;6.322;2023-05-10T15:14:41;15.00;99.90
53152;DHT22;39234;53.158;6.322;2023-05-10T15:17:07;15.00;99.90
53152;DHT22;39234;53.158;6.322;2023-05-10T15:19:33;15.20;99.90
53152;DHT22;39234;53.158;6.322;2023-05-10T15:21:59;15.20;99.90
53152;DHT22;39234;53.158;6.322;2023-05-10T15:24:25;15.00;99.90
53152;DHT22;39234;53.158;6.322;2023-05-10T15:26:50;15.30;99.90
53152;DHT22;39234;53.158;6.322;2023-05-10T15:29:16;15.10;99.90
53152;DHT22;39234;53.158;6.322;2023-05-10T15:31:49;15.50;99.90
53152;DHT22;39234;53.158;6.322;2023-05-10T15:34:16;15.30;99.90
53152;DHT22;39234;53.158;6.322;2023-05-10T15:36:43;15.20;99.90
53152;DHT22;39234;53.158;6.322;2023-05-10T15:39:08;15.10;99.90
53152;DHT22;39234;53.158;6.322;2023-05-10T15:41:35;15.20;99.90
53152;DHT22;39234;53.158;6.322;2023-05-10T15:44:01;15.00;99.90
53152;DHT22;39234;53.158;6.322;2023-05-10T15:46:28;15.00;99.90
53152;DHT22;39234;53.158;6.322;2023-05-10T15:48:54;14.90;99.90
53152;DHT22;39234;53.158;6.322;2023-05-10T15:51:20;14.80;99.90
53152;DHT22;39234;53.158;6.322;2023-05-10T15:53:46;14.90;99.90
53152;DHT22;39234;53.158;6.322;2023-05-10T15:56:12;14.90;99.90
53152;DHT22;39234;53.158;6.322;2023-05-10T15:58:38;14.90;99.90
53152;DHT22;39234;53.158;6.322;2023-05-10T16:01:04;14.80;99.90